sensor_id;sensor_type;location;lat;lon;timestamp;temperature;humidity
32877;DHT22;19226;51.600;8.034;2023-09-19T00:02:27;17.50;99.90
32877;DHT22;19226;51.600;8.034;2023-09-19T00:05:13;17.50;99.90
32877;DHT22;19226;51.600;8.034;2023-09-19T00:07:58;17.50;99.90
32877;DHT22;19226;51.600;8.034;2023-09-19T00:10:43;17.50;99.90
32877;DHT22;19226;51.600;8.034;2023-09-19T00:13:27;17.40;99.90
32877;DHT22;19226;51.600;8.034;2023-09-19T00:16:12;17.50;99.90
32877;DHT22;19226;51.600;8.034;2023-09-19T00:18:58;17.40;99.90
32877;DHT22;19226;51.600;8.034;2023-09-19T00:21:47;17.40;99.90
32877;DHT22;19226;51.600;8.034;2023-09-19T00:24:31;17.40;99.90
32877;DHT22;19226;51.600;8.034;2023-09-19T00:27:16;17.40;99.90
32877;DHT22;19226;51.600;8.034;2023-09-19T00:30:00;17.40;99.90
32877;DHT22;19226;51.600;8.034;2023-09-19T00:32:46;17.40;99.90
32877;DHT22;19226;51.600;8.034;2023-09-19T00:35:34;17.40;99.90
32877;DHT22;19226;51.600;8.034;2023-09-19T00:38:19;17.30;99.90
32877;DHT22;19226;51.600;8.034;2023-09-19T00:41:10;17.30;99.90
32877;DHT22;19226;51.600;8.034;2023-09-19T00:43:57;17.30;99.90
32877;DHT22;19226;51.600;8.034;2023-09-19T00:46:41;17.30;99.90
32877;DHT22;19226;51.600;8.034;2023-09-19T00:49:26;17.20;99.90
32877;DHT22;19226;51.600;8.034;2023-09-19T00:52:12;17.20;99.90
32877;DHT22;19226;51.600;8.034;2023-09-19T00:54:56;17.20;99.90
32877;DHT22;19226;51.600;8.034;2023-09-19T00:57:42;17.20;99.90
32877;DHT22;19226;51.600;8.034;2023-09-19T01:00:28;17.20;99.90
32877;DHT22;19226;51.600;8.034;2023-09-19T01:03:13;17.20;99.90
32877;DHT22;19226;51.600;8.034;2023-09-19T01:05:59;17.10;99.90
32877;DHT22;19226;51.600;8.034;2023-09-19T01:08:44;17.10;99.90
32877;DHT22;19226;51.600;8.034;2023-09-19T01:11:35;17.10;99.90
32877;DHT22;19226;51.600;8.034;2023-09-19T01:14:56;17.10;99.90
32877;DHT22;19226;51.600;8.034;2023-09-19T01:21:01;17.00;99.90
32877;DHT22;19226;51.600;8.034;2023-09-19T01:30:13;16.90;99.90
32877;DHT22;19226;51.600;8.034;2023-09-19T01:32:59;16.80;99.90
32877;DHT22;19226;51.600;8.034;2023-09-19T01:35:44;16.80;99.90
32877;DHT22;19226;51.600;8.034;2023-09-19T01:38:29;16.80;99.90
32877;DHT22;19226;51.600;8.034;2023-09-19T01:41:17;16.80;99.90
32877;DHT22;19226;51.600;8.034;2023-09-19T01:44:09;16.80;99.90
32877;DHT22;19226;51.600;8.034;2023-09-19T01:46:59;16.70;99.90
32877;DHT22;19226;51.600;8.034;2023-09-19T01:49:56;16.70;99.90
32877;DHT22;19226;51.600;8.034;2023-09-19T01:52:57;16.70;99.90
32877;DHT22;19226;51.600;8.034;2023-09-19T01:55:48;16.70;99.90
32877;DHT22;19226;51.600;8.034;2023-09-19T01:58:49;16.60;99.90
32877;DHT22;19226;51.600;8.034;2023-09-19T02:01:35;16.60;99.90
32877;DHT22;19226;51.600;8.034;2023-09-19T02:04:21;16.60;99.90
32877;DHT22;19226;51.600;8.034;2023-09-19T02:07:06;16.50;99.90
32877;DHT22;19226;51.600;8.034;2023-09-19T02:09:52;16.60;99.90
32877;DHT22;19226;51.600;8.034;2023-09-19T02:12:37;16.50;99.90
32877;DHT22;19226;51.600;8.034;2023-09-19T02:15:22;16.60;99.90
32877;DHT22;19226;51.600;8.034;2023-09-19T02:18:07;16.50;99.90
32877;DHT22;19226;51.600;8.034;2023-09-19T02:20:53;16.50;99.90
32877;DHT22;19226;51.600;8.034;2023-09-19T02:23:38;16.50;99.90
32877;DHT22;19226;51.600;8.034;2023-09-19T02:26:23;16.50;99.90
32877;DHT22;19226;51.600;8.034;2023-09-19T02:29:07;16.50;99.90
32877;DHT22;19226;51.600;8.034;2023-09-19T02:31:53;16.50;99.90
32877;DHT22;19226;51.600;8.034;2023-09-19T02:34:40;16.50;99.90
32877;DHT22;19226;51.600;8.034;2023-09-19T02:37:26;16.40;99.90
32877;DHT22;19226;51.600;8.034;2023-09-19T02:40:10;16.40;99.90
32877;DHT22;19226;51.600;8.034;2023-09-19T02:43:06;16.30;99.90
32877;DHT22;19226;51.600;8.034;2023-09-19T02:45:52;16.30;99.90
32877;DHT22;19226;51.600;8.034;2023-09-19T02:48:41;16.30;99.90
32877;DHT22;19226;51.600;8.034;2023-09-19T02:51:26;16.30;99.90
32877;DHT22;19226;51.600;8.034;2023-09-19T02:54:11;16.20;99.90
32877;DHT22;19226;51.600;8.034;2023-09-19T02:56:56;16.20;99.90
32877;DHT22;19226;51.600;8.034;2023-09-19T02:59:41;16.20;99.90
32877;DHT22;19226;51.600;8.034;2023-09-19T03:02:26;16.20;99.90
32877;DHT22;19226;51.600;8.034;2023-09-19T03:05:12;16.20;99.90
32877;DHT22;19226;51.600;8.034;2023-09-19T03:07:57;16.20;99.90
32877;DHT22;19226;51.600;8.034;2023-09-19T03:10:48;16.10;99.90
32877;DHT22;19226;51.600;8.034;2023-09-19T03:13:32;16.10;99.90
32877;DHT22;19226;51.600;8.034;2023-09-19T03:16:17;16.10;99.90
32877;DHT22;19226;51.600;8.034;2023-09-19T03:19:03;16.00;99.90
32877;DHT22;19226;51.600;8.034;2023-09-19T03:21:50;16.00;99.90
32877;DHT22;19226;51.600;8.034;2023-09-19T03:24:35;16.00;99.90
32877;DHT22;19226;51.600;8.034;2023-09-19T03:27:22;16.00;99.90
32877;DHT22;19226;51.600;8.034;2023-09-19T03:30:07;16.10;99.90
32877;DHT22;19226;51.600;8.034;2023-09-19T03:32:53;16.00;99.90
32877;DHT22;19226;51.600;8.034;2023-09-19T03:35:39;16.00;99.90
32877;DHT22;19226;51.600;8.034;2023-09-19T03:38:25;16.00;99.90
32877;DHT22;19226;51.600;8.034;2023-09-19T03:41:10;15.90;99.90
32877;DHT22;19226;51.600;8.034;2023-09-19T03:44:01;15.90;99.90
32877;DHT22;19226;51.600;8.034;2023-09-19T03:46:46;15.90;99.90
32877;DHT22;19226;51.600;8.034;2023-09-19T03:49:31;15.90;99.90
32877;DHT22;19226;51.600;8.034;2023-09-19T03:52:15;15.90;99.90
32877;DHT22;19226;51.600;8.034;2023-09-19T03:55:00;15.90;99.90
32877;DHT22;19226;51.600;8.034;2023-09-19T03:57:50;15.80;99.90
32877;DHT22;19226;51.600;8.034;2023-09-19T04:00:35;15.80;99.90
32877;DHT22;19226;51.600;8.034;2023-09-19T04:03:20;15.90;99.90
32877;DHT22;19226;51.600;8.034;2023-09-19T04:06:05;15.90;99.90
32877;DHT22;19226;51.600;8.034;2023-09-19T04:08:50;15.80;99.90
32877;DHT22;19226;51.600;8.034;2023-09-19T04:11:35;15.80;99.90
32877;DHT22;19226;51.600;8.034;2023-09-19T04:14:23;15.80;99.90
32877;DHT22;19226;51.600;8.034;2023-09-19T04:17:07;15.80;99.90
32877;DHT22;19226;51.600;8.034;2023-09-19T04:19:52;15.70;99.90
32877;DHT22;19226;51.600;8.034;2023-09-19T04:22:38;15.70;99.90
32877;DHT22;19226;51.600;8.034;2023-09-19T04:25:24;15.70;99.90
32877;DHT22;19226;51.600;8.034;2023-09-19T04:28:09;15.70;99.90
32877;DHT22;19226;51.600;8.034;2023-09-19T04:30:55;15.70;99.90
32877;DHT22;19226;51.600;8.034;2023-09-19T04:33:40;15.60;99.90
32877;DHT22;19226;51.600;8.034;2023-09-19T04:36:27;15.60;99.90
32877;DHT22;19226;51.600;8.034;2023-09-19T04:39:12;15.60;99.90
32877;DHT22;19226;51.600;8.034;2023-09-19T04:41:57;15.60;99.90
32877;DHT22;19226;51.600;8.034;2023-09-19T04:44:42;15.50;99.90
32877;DHT22;19226;51.600;8.034;2023-09-19T04:47:27;15.50;99.90
32877;DHT22;19226;51.600;8.034;2023-09-19T04:50:11;15.50;99.90
32877;DHT22;19226;51.600;8.034;2023-09-19T04:52:56;15.40;99.90
32877;DHT22;19226;51.600;8.034;2023-09-19T04:55:41;15.40;99.90
32877;DHT22;19226;51.600;8.034;2023-09-19T04:58:25;15.30;99.90
32877;DHT22;19226;51.600;8.034;2023-09-19T05:01:10;15.30;99.90
32877;DHT22;19226;51.600;8.034;2023-09-19T05:03:56;15.30;99.90
32877;DHT22;19226;51.600;8.034;2023-09-19T05:06:41;15.40;99.90
32877;DHT22;19226;51.600;8.034;2023-09-19T05:09:25;15.30;99.90
32877;DHT22;19226;51.600;8.034;2023-09-19T05:12:10;15.30;99.90
32877;DHT22;19226;51.600;8.034;2023-09-19T05:14:55;15.40;99.90
32877;DHT22;19226;51.600;8.034;2023-09-19T05:17:39;15.30;99.90
32877;DHT22;19226;51.600;8.034;2023-09-19T05:20:25;15.30;99.90
32877;DHT22;19226;51.600;8.034;2023-09-19T05:23:20;15.40;99.90
32877;DHT22;19226;51.600;8.034;2023-09-19T05:26:05;15.40;99.90
32877;DHT22;19226;51.600;8.034;2023-09-19T05:28:49;15.30;99.90
32877;DHT22;19226;51.600;8.034;2023-09-19T05:31:34;15.30;99.90
32877;DHT22;19226;51.600;8.034;2023-09-19T05:34:20;15.30;99.90
32877;DHT22;19226;51.600;8.034;2023-09-19T05:37:05;15.30;99.90
32877;DHT22;19226;51.600;8.034;2023-09-19T05:39:51;15.30;99.90
32877;DHT22;19226;51.600;8.034;2023-09-19T05:42:35;15.30;99.90
32877;DHT22;19226;51.600;8.034;2023-09-19T05:45:20;15.30;99.90
32877;DHT22;19226;51.600;8.034;2023-09-19T05:48:12;15.30;99.90
32877;DHT22;19226;51.600;8.034;2023-09-19T05:51:00;15.30;99.90
32877;DHT22;19226;51.600;8.034;2023-09-19T05:53:45;15.30;99.90
32877;DHT22;19226;51.600;8.034;2023-09-19T05:56:32;15.30;99.90
32877;DHT22;19226;51.600;8.034;2023-09-19T05:59:17;15.40;99.90
32877;DHT22;19226;51.600;8.034;2023-09-19T06:02:01;15.30;99.90
32877;DHT22;19226;51.600;8.034;2023-09-19T06:04:46;15.40;99.90
32877;DHT22;19226;51.600;8.034;2023-09-19T06:07:30;15.30;99.90
32877;DHT22;19226;51.600;8.034;2023-09-19T06:10:20;15.30;99.90
32877;DHT22;19226;51.600;8.034;2023-09-19T06:13:07;15.40;99.90
32877;DHT22;19226;51.600;8.034;2023-09-19T06:15:55;15.30;99.90
32877;DHT22;19226;51.600;8.034;2023-09-19T06:18:40;15.40;99.90
32877;DHT22;19226;51.600;8.034;2023-09-19T06:21:28;15.40;99.90
32877;DHT22;19226;51.600;8.034;2023-09-19T06:24:12;15.40;99.90
32877;DHT22;19226;51.600;8.034;2023-09-19T06:26:57;15.50;99.90
32877;DHT22;19226;51.600;8.034;2023-09-19T06:29:41;15.50;99.90
32877;DHT22;19226;51.600;8.034;2023-09-19T06:32:29;15.50;99.90
32877;DHT22;19226;51.600;8.034;2023-09-19T06:35:15;15.50;99.90
32877;DHT22;19226;51.600;8.034;2023-09-19T06:38:02;15.50;99.90
32877;DHT22;19226;51.600;8.034;2023-09-19T06:40:47;15.50;99.90
32877;DHT22;19226;51.600;8.034;2023-09-19T06:43:32;15.50;99.90
32877;DHT22;19226;51.600;8.034;2023-09-19T06:46:18;15.60;99.90
32877;DHT22;19226;51.600;8.034;2023-09-19T06:49:02;15.60;99.90
32877;DHT22;19226;51.600;8.034;2023-09-19T06:51:50;15.60;99.90
32877;DHT22;19226;51.600;8.034;2023-09-19T06:54:35;15.70;99.90
32877;DHT22;19226;51.600;8.034;2023-09-19T06:57:20;15.70;99.90
32877;DHT22;19226;51.600;8.034;2023-09-19T07:00:05;15.80;99.90
32877;DHT22;19226;51.600;8.034;2023-09-19T07:05:42;15.80;99.90
32877;DHT22;19226;51.600;8.034;2023-09-19T07:08:27;15.80;99.90
32877;DHT22;19226;51.600;8.034;2023-09-19T07:11:12;15.80;99.90
32877;DHT22;19226;51.600;8.034;2023-09-19T07:13:57;15.90;99.90
32877;DHT22;19226;51.600;8.034;2023-09-19T07:16:42;15.90;99.90
32877;DHT22;19226;51.600;8.034;2023-09-19T07:19:29;15.90;99.90
32877;DHT22;19226;51.600;8.034;2023-09-19T07:22:14;16.00;99.90
32877;DHT22;19226;51.600;8.034;2023-09-19T07:24:58;16.00;99.90
32877;DHT22;19226;51.600;8.034;2023-09-19T07:27:43;16.00;99.90
32877;DHT22;19226;51.600;8.034;2023-09-19T07:30:28;16.10;99.90
32877;DHT22;19226;51.600;8.034;2023-09-19T07:33:13;16.10;99.90
32877;DHT22;19226;51.600;8.034;2023-09-19T07:35:57;16.10;99.90
32877;DHT22;19226;51.600;8.034;2023-09-19T07:38:42;16.20;99.90
32877;DHT22;19226;51.600;8.034;2023-09-19T07:41:27;16.20;99.90
32877;DHT22;19226;51.600;8.034;2023-09-19T07:44:14;16.30;99.90
32877;DHT22;19226;51.600;8.034;2023-09-19T07:46:59;16.40;99.90
32877;DHT22;19226;51.600;8.034;2023-09-19T07:49:47;16.40;99.90
32877;DHT22;19226;51.600;8.034;2023-09-19T07:52:32;16.40;99.90
32877;DHT22;19226;51.600;8.034;2023-09-19T07:55:18;16.50;99.90
32877;DHT22;19226;51.600;8.034;2023-09-19T07:58:04;16.60;99.90
32877;DHT22;19226;51.600;8.034;2023-09-19T08:00:50;16.60;99.90
32877;DHT22;19226;51.600;8.034;2023-09-19T08:03:38;16.60;99.90
32877;DHT22;19226;51.600;8.034;2023-09-19T08:06:27;16.70;99.90
32877;DHT22;19226;51.600;8.034;2023-09-19T08:09:14;16.70;99.90
32877;DHT22;19226;51.600;8.034;2023-09-19T08:12:06;16.70;99.90
32877;DHT22;19226;51.600;8.034;2023-09-19T08:14:52;16.80;99.90
32877;DHT22;19226;51.600;8.034;2023-09-19T08:17:36;16.80;99.90
32877;DHT22;19226;51.600;8.034;2023-09-19T08:20:21;16.90;99.90
32877;DHT22;19226;51.600;8.034;2023-09-19T08:23:06;17.00;99.90
32877;DHT22;19226;51.600;8.034;2023-09-19T08:25:56;17.00;99.90
32877;DHT22;19226;51.600;8.034;2023-09-19T08:28:41;17.10;99.90
32877;DHT22;19226;51.600;8.034;2023-09-19T08:31:26;17.10;99.90
32877;DHT22;19226;51.600;8.034;2023-09-19T08:34:11;17.20;99.90
32877;DHT22;19226;51.600;8.034;2023-09-19T08:36:55;17.20;99.90
32877;DHT22;19226;51.600;8.034;2023-09-19T08:39:41;17.30;99.90
32877;DHT22;19226;51.600;8.034;2023-09-19T08:42:26;17.40;99.90
32877;DHT22;19226;51.600;8.034;2023-09-19T08:45:11;17.40;99.90
32877;DHT22;19226;51.600;8.034;2023-09-19T08:51:27;17.60;99.90
32877;DHT22;19226;51.600;8.034;2023-09-19T08:54:24;17.70;99.90
32877;DHT22;19226;51.600;8.034;2023-09-19T08:57:11;17.70;99.90
32877;DHT22;19226;51.600;8.034;2023-09-19T08:59:57;17.70;99.90
32877;DHT22;19226;51.600;8.034;2023-09-19T09:02:44;17.80;99.90
32877;DHT22;19226;51.600;8.034;2023-09-19T09:05:30;17.90;99.90
32877;DHT22;19226;51.600;8.034;2023-09-19T09:08:18;17.90;99.90
32877;DHT22;19226;51.600;8.034;2023-09-19T09:11:04;17.90;99.90
32877;DHT22;19226;51.600;8.034;2023-09-19T09:13:52;17.90;99.90
32877;DHT22;19226;51.600;8.034;2023-09-19T09:16:37;17.90;99.90
32877;DHT22;19226;51.600;8.034;2023-09-19T09:19:22;18.00;99.90
32877;DHT22;19226;51.600;8.034;2023-09-19T09:22:10;18.00;99.90
32877;DHT22;19226;51.600;8.034;2023-09-19T09:24:56;18.10;99.90
32877;DHT22;19226;51.600;8.034;2023-09-19T09:27:43;18.20;99.90
32877;DHT22;19226;51.600;8.034;2023-09-19T09:30:36;18.30;99.90
32877;DHT22;19226;51.600;8.034;2023-09-19T09:33:22;18.30;99.90
32877;DHT22;19226;51.600;8.034;2023-09-19T09:36:06;18.30;99.90
32877;DHT22;19226;51.600;8.034;2023-09-19T09:38:53;18.30;99.90
32877;DHT22;19226;51.600;8.034;2023-09-19T09:41:39;18.40;99.90
32877;DHT22;19226;51.600;8.034;2023-09-19T09:44:24;18.50;99.90
32877;DHT22;19226;51.600;8.034;2023-09-19T09:47:09;18.50;99.90
32877;DHT22;19226;51.600;8.034;2023-09-19T09:50:12;18.60;99.90
32877;DHT22;19226;51.600;8.034;2023-09-19T09:53:02;18.70;99.90
32877;DHT22;19226;51.600;8.034;2023-09-19T09:56:07;18.70;99.90
32877;DHT22;19226;51.600;8.034;2023-09-19T09:58:53;18.70;99.90
32877;DHT22;19226;51.600;8.034;2023-09-19T10:01:48;18.80;99.90
32877;DHT22;19226;51.600;8.034;2023-09-19T10:04:33;18.80;99.90
32877;DHT22;19226;51.600;8.034;2023-09-19T10:07:31;18.90;99.90
32877;DHT22;19226;51.600;8.034;2023-09-19T10:10:41;19.00;99.90
32877;DHT22;19226;51.600;8.034;2023-09-19T10:13:28;19.00;99.90
32877;DHT22;19226;51.600;8.034;2023-09-19T10:16:16;19.10;99.90
32877;DHT22;19226;51.600;8.034;2023-09-19T10:19:08;19.20;99.90
32877;DHT22;19226;51.600;8.034;2023-09-19T10:21:55;19.30;99.90
32877;DHT22;19226;51.600;8.034;2023-09-19T10:24:41;19.40;99.90
32877;DHT22;19226;51.600;8.034;2023-09-19T10:27:26;19.40;99.90
32877;DHT22;19226;51.600;8.034;2023-09-19T10:30:14;19.50;99.90
32877;DHT22;19226;51.600;8.034;2023-09-19T10:33:03;19.60;99.90
32877;DHT22;19226;51.600;8.034;2023-09-19T10:35:49;19.70;99.90
32877;DHT22;19226;51.600;8.034;2023-09-19T10:38:39;19.80;99.90
32877;DHT22;19226;51.600;8.034;2023-09-19T10:41:29;19.90;99.90
32877;DHT22;19226;51.600;8.034;2023-09-19T10:44:17;19.90;99.90
32877;DHT22;19226;51.600;8.034;2023-09-19T10:47:05;20.10;99.90
32877;DHT22;19226;51.600;8.034;2023-09-19T10:49:51;20.10;99.90
32877;DHT22;19226;51.600;8.034;2023-09-19T10:52:39;20.20;99.90
32877;DHT22;19226;51.600;8.034;2023-09-19T10:55:27;20.30;99.90
32877;DHT22;19226;51.600;8.034;2023-09-19T10:58:28;20.30;99.90
32877;DHT22;19226;51.600;8.034;2023-09-19T11:01:13;20.30;99.90
32877;DHT22;19226;51.600;8.034;2023-09-19T11:04:22;20.30;99.90
32877;DHT22;19226;51.600;8.034;2023-09-19T11:07:09;20.30;99.90
32877;DHT22;19226;51.600;8.034;2023-09-19T11:09:57;20.30;99.90
32877;DHT22;19226;51.600;8.034;2023-09-19T11:27:10;20.90;99.90
32877;DHT22;19226;51.600;8.034;2023-09-19T11:30:25;21.00;99.90
32877;DHT22;19226;51.600;8.034;2023-09-19T11:36:14;20.90;99.90
32877;DHT22;19226;51.600;8.034;2023-09-19T11:38:59;21.00;99.90
32877;DHT22;19226;51.600;8.034;2023-09-19T11:41:52;21.00;99.90
32877;DHT22;19226;51.600;8.034;2023-09-19T11:44:40;21.10;99.90
32877;DHT22;19226;51.600;8.034;2023-09-19T11:47:26;21.10;99.90
32877;DHT22;19226;51.600;8.034;2023-09-19T11:50:10;20.90;99.90
32877;DHT22;19226;51.600;8.034;2023-09-19T11:52:56;20.90;99.90
32877;DHT22;19226;51.600;8.034;2023-09-19T11:55:41;20.90;99.90
32877;DHT22;19226;51.600;8.034;2023-09-19T11:58:28;21.00;99.90
32877;DHT22;19226;51.600;8.034;2023-09-19T12:01:19;21.00;99.90
32877;DHT22;19226;51.600;8.034;2023-09-19T12:04:06;21.10;99.90
32877;DHT22;19226;51.600;8.034;2023-09-19T12:06:58;21.20;99.90
32877;DHT22;19226;51.600;8.034;2023-09-19T12:09:48;21.40;99.90
32877;DHT22;19226;51.600;8.034;2023-09-19T12:12:33;21.50;99.90
32877;DHT22;19226;51.600;8.034;2023-09-19T12:15:28;21.70;99.90
32877;DHT22;19226;51.600;8.034;2023-09-19T12:18:30;21.80;99.90
32877;DHT22;19226;51.600;8.034;2023-09-19T12:21:31;21.90;99.90
32877;DHT22;19226;51.600;8.034;2023-09-19T12:24:17;22.00;99.90
32877;DHT22;19226;51.600;8.034;2023-09-19T12:27:05;22.10;99.90
32877;DHT22;19226;51.600;8.034;2023-09-19T12:29:51;22.10;99.90
32877;DHT22;19226;51.600;8.034;2023-09-19T12:32:40;22.20;99.90
32877;DHT22;19226;51.600;8.034;2023-09-19T12:35:32;22.20;99.90
32877;DHT22;19226;51.600;8.034;2023-09-19T12:38:27;22.20;99.90
32877;DHT22;19226;51.600;8.034;2023-09-19T12:41:19;22.20;99.90
32877;DHT22;19226;51.600;8.034;2023-09-19T12:44:06;22.30;99.90
32877;DHT22;19226;51.600;8.034;2023-09-19T12:46:53;22.40;99.90
32877;DHT22;19226;51.600;8.034;2023-09-19T12:50:16;22.50;99.90
32877;DHT22;19226;51.600;8.034;2023-09-19T12:53:25;22.50;99.90
32877;DHT22;19226;51.600;8.034;2023-09-19T12:56:15;22.50;99.90
32877;DHT22;19226;51.600;8.034;2023-09-19T12:59:00;22.50;99.90
32877;DHT22;19226;51.600;8.034;2023-09-19T13:02:03;22.40;99.90
32877;DHT22;19226;51.600;8.034;2023-09-19T13:04:54;22.40;99.90
32877;DHT22;19226;51.600;8.034;2023-09-19T13:07:44;22.50;99.90
32877;DHT22;19226;51.600;8.034;2023-09-19T13:10:34;22.60;99.90
32877;DHT22;19226;51.600;8.034;2023-09-19T13:13:23;22.60;99.90
32877;DHT22;19226;51.600;8.034;2023-09-19T13:16:12;22.50;99.90
32877;DHT22;19226;51.600;8.034;2023-09-19T13:18:58;22.60;99.90
32877;DHT22;19226;51.600;8.034;2023-09-19T13:21:43;22.60;99.90
32877;DHT22;19226;51.600;8.034;2023-09-19T13:24:29;22.60;99.90
32877;DHT22;19226;51.600;8.034;2023-09-19T13:27:15;22.60;99.90
32877;DHT22;19226;51.600;8.034;2023-09-19T13:29:59;22.70;99.90
32877;DHT22;19226;51.600;8.034;2023-09-19T13:32:44;22.70;99.90
32877;DHT22;19226;51.600;8.034;2023-09-19T13:35:31;22.90;99.90
32877;DHT22;19226;51.600;8.034;2023-09-19T13:38:17;22.90;99.90
32877;DHT22;19226;51.600;8.034;2023-09-19T13:41:03;22.80;99.90
32877;DHT22;19226;51.600;8.034;2023-09-19T13:43:55;22.70;99.90
32877;DHT22;19226;51.600;8.034;2023-09-19T13:46:41;22.60;99.90
32877;DHT22;19226;51.600;8.034;2023-09-19T13:49:30;22.60;99.90
32877;DHT22;19226;51.600;8.034;2023-09-19T13:52:16;22.60;99.90
32877;DHT22;19226;51.600;8.034;2023-09-19T13:55:01;22.60;99.90
32877;DHT22;19226;51.600;8.034;2023-09-19T13:57:54;22.60;99.90
32877;DHT22;19226;51.600;8.034;2023-09-19T14:00:40;22.70;99.90
32877;DHT22;19226;51.600;8.034;2023-09-19T14:03:24;22.70;99.90
32877;DHT22;19226;51.600;8.034;2023-09-19T14:06:12;22.60;99.90
32877;DHT22;19226;51.600;8.034;2023-09-19T14:08:57;22.60;99.90
32877;DHT22;19226;51.600;8.034;2023-09-19T14:11:41;22.70;99.90
32877;DHT22;19226;51.600;8.034;2023-09-19T14:14:31;22.60;99.90
32877;DHT22;19226;51.600;8.034;2023-09-19T14:17:15;22.70;99.90
32877;DHT22;19226;51.600;8.034;2023-09-19T14:20:00;22.60;99.90
32877;DHT22;19226;51.600;8.034;2023-09-19T14:22:45;22.80;99.90
32877;DHT22;19226;51.600;8.034;2023-09-19T14:25:30;22.90;99.90
32877;DHT22;19226;51.600;8.034;2023-09-19T14:28:14;22.90;99.90
32877;DHT22;19226;51.600;8.034;2023-09-19T14:31:04;22.90;99.90
32877;DHT22;19226;51.600;8.034;2023-09-19T14:33:54;22.90;99.90
32877;DHT22;19226;51.600;8.034;2023-09-19T14:36:40;22.90;99.90
32877;DHT22;19226;51.600;8.034;2023-09-19T14:39:24;22.90;99.90
32877;DHT22;19226;51.600;8.034;2023-09-19T14:42:12;22.90;99.90
32877;DHT22;19226;51.600;8.034;2023-09-19T14:44:59;23.00;99.90
32877;DHT22;19226;51.600;8.034;2023-09-19T14:47:50;23.10;99.90
32877;DHT22;19226;51.600;8.034;2023-09-19T14:50:37;23.10;99.90
32877;DHT22;19226;51.600;8.034;2023-09-19T14:53:21;23.10;99.90
32877;DHT22;19226;51.600;8.034;2023-09-19T14:56:08;22.90;99.90
32877;DHT22;19226;51.600;8.034;2023-09-19T14:58:53;22.80;99.90
32877;DHT22;19226;51.600;8.034;2023-09-19T15:01:37;22.70;99.90
32877;DHT22;19226;51.600;8.034;2023-09-19T15:04:22;22.60;99.90
32877;DHT22;19226;51.600;8.034;2023-09-19T15:07:08;22.50;99.90
32877;DHT22;19226;51.600;8.034;2023-09-19T15:09:53;22.40;99.90
32877;DHT22;19226;51.600;8.034;2023-09-19T15:12:38;22.30;99.90
32877;DHT22;19226;51.600;8.034;2023-09-19T15:15:22;22.30;99.90
32877;DHT22;19226;51.600;8.034;2023-09-19T15:18:07;22.40;99.90
32877;DHT22;19226;51.600;8.034;2023-09-19T15:20:52;22.30;99.90
32877;DHT22;19226;51.600;8.034;2023-09-19T15:23:40;22.20;99.90
32877;DHT22;19226;51.600;8.034;2023-09-19T15:26:25;22.20;99.90
32877;DHT22;19226;51.600;8.034;2023-09-19T15:29:10;22.10;99.90
32877;DHT22;19226;51.600;8.034;2023-09-19T15:31:55;22.10;99.90
32877;DHT22;19226;51.600;8.034;2023-09-19T15:34:42;22.10;99.90
32877;DHT22;19226;51.600;8.034;2023-09-19T15:37:27;22.00;99.90
32877;DHT22;19226;51.600;8.034;2023-09-19T15:40:12;22.00;99.90
32877;DHT22;19226;51.600;8.034;2023-09-19T15:42:56;22.00;99.90
32877;DHT22;19226;51.600;8.034;2023-09-19T15:45:41;21.90;99.90
32877;DHT22;19226;51.600;8.034;2023-09-19T15:48:25;21.80;99.90
32877;DHT22;19226;51.600;8.034;2023-09-19T15:51:10;21.70;99.90
32877;DHT22;19226;51.600;8.034;2023-09-19T15:53:58;21.70;99.90
32877;DHT22;19226;51.600;8.034;2023-09-19T15:56:46;21.60;99.90
32877;DHT22;19226;51.600;8.034;2023-09-19T15:59:31;21.60;99.90
32877;DHT22;19226;51.600;8.034;2023-09-19T16:02:16;21.60;99.90
32877;DHT22;19226;51.600;8.034;2023-09-19T16:05:02;21.60;99.90
32877;DHT22;19226;51.600;8.034;2023-09-19T16:07:49;21.50;99.90
32877;DHT22;19226;51.600;8.034;2023-09-19T16:10:37;21.40;99.90
32877;DHT22;19226;51.600;8.034;2023-09-19T16:13:22;21.40;99.90
32877;DHT22;19226;51.600;8.034;2023-09-19T16:16:08;21.30;99.90
32877;DHT22;19226;51.600;8.034;2023-09-19T16:19:00;21.30;99.90
32877;DHT22;19226;51.600;8.034;2023-09-19T16:21:47;21.20;99.90
32877;DHT22;19226;51.600;8.034;2023-09-19T16:24:31;21.20;99.90
32877;DHT22;19226;51.600;8.034;2023-09-19T16:27:16;21.20;99.90
32877;DHT22;19226;51.600;8.034;2023-09-19T16:30:05;21.20;99.90
32877;DHT22;19226;51.600;8.034;2023-09-19T16:32:53;21.10;99.90
32877;DHT22;19226;51.600;8.034;2023-09-19T16:35:37;21.10;99.90
32877;DHT22;19226;51.600;8.034;2023-09-19T16:38:24;21.00;99.90
32877;DHT22;19226;51.600;8.034;2023-09-19T16:41:09;21.00;99.90
32877;DHT22;19226;51.600;8.034;2023-09-19T16:43:54;21.00;99.90
32877;DHT22;19226;51.600;8.034;2023-09-19T16:46:38;20.90;99.90
32877;DHT22;19226;51.600;8.034;2023-09-19T16:49:23;20.80;99.90
32877;DHT22;19226;51.600;8.034;2023-09-19T16:52:09;20.80;99.90
32877;DHT22;19226;51.600;8.034;2023-09-19T16:54:53;20.80;99.90
32877;DHT22;19226;51.600;8.034;2023-09-19T16:57:38;20.70;99.90
32877;DHT22;19226;51.600;8.034;2023-09-19T17:00:22;20.70;99.90
32877;DHT22;19226;51.600;8.034;2023-09-19T17:03:09;20.60;99.90
32877;DHT22;19226;51.600;8.034;2023-09-19T17:05:57;20.60;99.90
32877;DHT22;19226;51.600;8.034;2023-09-19T17:08:43;20.60;99.90
32877;DHT22;19226;51.600;8.034;2023-09-19T17:11:28;20.50;99.90
32877;DHT22;19226;51.600;8.034;2023-09-19T17:14:13;20.40;99.90
32877;DHT22;19226;51.600;8.034;2023-09-19T17:16:58;20.40;99.90
32877;DHT22;19226;51.600;8.034;2023-09-19T17:19:42;20.30;99.90
32877;DHT22;19226;51.600;8.034;2023-09-19T17:22:27;20.30;99.90
32877;DHT22;19226;51.600;8.034;2023-09-19T17:25:12;20.20;99.90
32877;DHT22;19226;51.600;8.034;2023-09-19T17:27:56;20.10;99.90
32877;DHT22;19226;51.600;8.034;2023-09-19T17:30:42;20.10;99.90
32877;DHT22;19226;51.600;8.034;2023-09-19T17:33:28;20.00;99.90
32877;DHT22;19226;51.600;8.034;2023-09-19T17:36:26;20.00;99.90
32877;DHT22;19226;51.600;8.034;2023-09-19T17:39:11;19.90;99.90
32877;DHT22;19226;51.600;8.034;2023-09-19T17:41:58;19.90;99.90
32877;DHT22;19226;51.600;8.034;2023-09-19T17:44:43;19.90;99.90
32877;DHT22;19226;51.600;8.034;2023-09-19T17:47:27;19.80;99.90
32877;DHT22;19226;51.600;8.034;2023-09-19T17:50:12;19.80;99.90
32877;DHT22;19226;51.600;8.034;2023-09-19T17:52:56;19.70;99.90
32877;DHT22;19226;51.600;8.034;2023-09-19T17:55:42;19.60;99.90
32877;DHT22;19226;51.600;8.034;2023-09-19T17:58:26;19.60;99.90
32877;DHT22;19226;51.600;8.034;2023-09-19T18:01:16;19.60;99.90
32877;DHT22;19226;51.600;8.034;2023-09-19T18:04:02;19.50;99.90
32877;DHT22;19226;51.600;8.034;2023-09-19T18:06:47;19.40;99.90
32877;DHT22;19226;51.600;8.034;2023-09-19T18:09:33;19.40;99.90